createdAt,value
2019-04-28T00:00:42.864Z,998.20
2019-04-28T00:03:11.969Z,971.80
2019-04-28T00:05:41.575Z,967.10
2019-04-28T00:08:10.952Z,921.43
2019-04-28T00:10:41.727Z,910.17
2019-04-28T00:13:11.101Z,942.40
2019-04-28T00:15:41.690Z,910.07
2019-04-28T00:18:11.988Z,999.90
2019-04-28T00:20:42.863Z,947.57
2019-04-28T00:23:13.541Z,930.47
2019-04-28T00:25:44.231Z,994.20
2019-04-28T00:28:13.375Z,938.67
2019-04-28T00:30:42.479Z,999.90
2019-04-28T00:33:12.617Z,982.27
2019-04-28T00:35:41.891Z,958.87
2019-04-28T00:38:11.531Z,941.53
2019-04-28T00:40:42.065Z,946.20
2019-04-28T00:43:11.249Z,969.60
2019-04-28T00:45:41.326Z,984.50
2019-04-28T00:48:10.974Z,983.33
2019-04-28T00:50:41.395Z,940.07
2019-04-28T00:53:11.653Z,953.07
2019-04-28T00:55:41.640Z,955.67
2019-04-28T00:58:10.945Z,950.07
2019-04-28T01:00:41.611Z,952.93
2019-04-28T01:03:11.716Z,967.10
2019-04-28T01:05:41.239Z,948.10
2019-04-28T01:08:10.973Z,969.13
2019-04-28T01:10:41.066Z,998.33
2019-04-28T01:13:11.664Z,997.20
2019-04-28T01:15:42.354Z,910.73
2019-04-28T01:18:13.048Z,981.90
2019-04-28T01:20:42.095Z,999.07
2019-04-28T01:23:11.152Z,952.30
2019-04-28T01:25:40.247Z,987.00
2019-04-28T01:28:09.857Z,990.90
2019-04-28T01:30:40.591Z,948.57
2019-04-28T01:33:11.260Z,968.37
2019-04-28T01:35:41.259Z,947.07
2019-04-28T01:38:12.294Z,963.83
2019-04-28T01:40:41.363Z,992.97
2019-04-28T01:43:10.556Z,997.17
2019-04-28T01:45:39.914Z,968.87
2019-04-28T01:48:10.461Z,991.83
2019-04-28T01:50:41.109Z,999.90
2019-04-28T01:53:10.161Z,991.87
2019-04-28T01:55:39.332Z,948.03
2019-04-28T01:58:10.060Z,950.33
2019-04-28T02:00:40.527Z,951.27
2019-04-28T02:03:10.373Z,998.60
2019-04-28T02:05:40.505Z,991.57
2019-04-28T02:08:10.205Z,991.50
2019-04-28T02:10:40.146Z,980.03
2019-04-28T02:13:09.580Z,968.27
2019-04-28T02:15:40.089Z,963.93
2019-04-28T02:18:09.952Z,985.00
2019-04-28T02:20:40.694Z,956.43
2019-04-28T02:23:11.389Z,964.27
2019-04-28T02:25:40.430Z,954.03
2019-04-28T02:28:11.743Z,968.77
2019-04-28T02:30:48.936Z,964.37
2019-04-28T02:33:11.724Z,977.40
2019-04-28T02:35:41.855Z,999.10
2019-04-28T02:38:11.565Z,991.67
2019-04-28T02:40:40.836Z,955.53
2019-04-28T02:43:11.430Z,905.33
2019-04-28T02:45:41.424Z,996.00
2019-04-28T02:48:12.118Z,967.87
2019-04-28T02:50:42.811Z,962.83
2019-04-28T02:53:13.478Z,935.73
2019-04-28T02:55:42.521Z,938.57
2019-04-28T02:58:13.552Z,917.90
2019-04-28T03:01:00.348Z,991.87
2019-04-28T03:03:12.919Z,954.73
2019-04-28T03:05:42.041Z,960.07
2019-04-28T03:08:11.302Z,936.77
2019-04-28T03:10:41.211Z,966.10
2019-04-28T03:13:13.121Z,936.13
2019-04-28T03:15:41.635Z,961.77
2019-04-28T03:18:11.733Z,971.70
2019-04-28T03:20:41.952Z,948.53
2019-04-28T03:23:12.470Z,937.20
2019-04-28T03:25:43.256Z,952.27
2019-04-28T03:28:13.901Z,928.87
2019-04-28T03:30:44.586Z,933.50
2019-04-28T03:33:18.811Z,913.77
2019-04-28T03:35:46.022Z,901.90
2019-04-28T03:38:15.074Z,954.43
2019-04-28T03:40:44.177Z,949.30
2019-04-28T03:43:14.262Z,934.30
2019-04-28T03:45:45.453Z,973.90
2019-04-28T03:48:14.518Z,917.60
2019-04-28T03:50:43.634Z,959.30
2019-04-28T03:53:12.769Z,944.37
2019-04-28T03:55:41.888Z,923.33
2019-04-28T03:58:11.045Z,952.57
2019-04-28T04:00:40.920Z,935.63
2019-04-28T04:03:10.902Z,934.73
2019-04-28T04:05:40.781Z,958.83
2019-04-28T04:08:11.025Z,979.87
2019-04-28T04:10:41.802Z,953.30
2019-04-28T04:13:12.452Z,909.37
2019-04-28T04:15:43.195Z,944.40
2019-04-28T04:18:13.911Z,872.43
2019-04-28T04:20:43.030Z,903.20
2019-04-28T04:23:12.076Z,848.20
2019-04-28T04:25:41.792Z,871.27
2019-04-28T04:28:11.063Z,872.13
2019-04-28T04:30:40.995Z,851.40
2019-04-28T04:33:11.113Z,833.17
2019-04-28T04:35:41.194Z,902.97
2019-04-28T04:38:11.080Z,886.40
2019-04-28T04:40:41.299Z,869.33
2019-04-28T04:43:11.388Z,859.57
2019-04-28T04:45:40.759Z,807.00
2019-04-28T04:48:11.603Z,842.70
2019-04-28T04:50:41.130Z,818.07
2019-04-28T04:53:10.995Z,781.53
2019-04-28T04:55:41.042Z,848.23
2019-04-28T04:58:10.749Z,827.10
2019-04-28T05:00:43.282Z,781.97
2019-04-28T05:03:13.974Z,795.60
2019-04-28T05:05:44.111Z,772.33
2019-04-28T05:08:15.535Z,775.67
2019-04-28T05:10:43.802Z,794.97
2019-04-28T05:13:12.797Z,735.63
2019-04-28T05:15:41.894Z,789.20
2019-04-28T05:18:11.859Z,725.63
2019-04-28T05:20:40.978Z,734.50
2019-04-28T05:23:11.762Z,704.97
2019-04-28T05:28:59.533Z,799.27
2019-04-28T05:31:29.729Z,724.57
2019-04-28T05:34:00.026Z,779.80
2019-04-28T05:36:35.089Z,724.93
2019-04-28T05:39:00.237Z,700.57
2019-04-28T05:41:29.610Z,670.90
2019-04-28T05:43:59.637Z,711.57
2019-04-28T05:46:30.013Z,736.03
2019-04-28T05:49:00.004Z,936.63
2019-04-28T05:51:30.973Z,763.93
2019-04-28T05:54:01.633Z,729.13
2019-04-28T05:56:32.350Z,699.33
2019-04-28T05:59:03.066Z,703.73
2019-04-28T06:01:34.169Z,660.63
2019-04-28T06:04:03.198Z,811.50
2019-04-28T06:06:33.934Z,735.60
2019-04-28T06:09:04.677Z,762.30
2019-04-28T06:11:35.197Z,720.73
2019-04-28T06:14:04.528Z,734.43
2019-04-28T06:16:33.625Z,757.33
2019-04-28T06:19:02.661Z,780.60
2019-04-28T06:21:32.652Z,769.87
2019-04-28T06:24:01.622Z,749.93
2019-04-28T06:26:30.632Z,862.23
2019-04-28T06:28:59.681Z,831.13
2019-04-28T06:31:29.808Z,742.77
2019-04-28T06:33:59.801Z,639.60
2019-04-28T06:36:28.889Z,851.67
2019-04-28T06:38:57.917Z,657.80
2019-04-28T06:41:27.074Z,627.67
2019-04-28T06:43:56.140Z,632.70
2019-04-28T06:46:25.143Z,644.87
2019-04-28T06:48:54.189Z,903.77
2019-04-28T06:51:23.418Z,999.90
2019-04-28T06:53:52.822Z,612.73
2019-04-28T06:56:22.078Z,612.17
2019-04-28T06:58:58.777Z,612.67
2019-04-28T07:01:22.151Z,576.63
2019-04-28T07:03:51.492Z,602.87
2019-04-28T07:06:20.557Z,656.50
2019-04-28T07:08:49.577Z,660.60
2019-04-28T07:11:18.614Z,665.50
2019-04-28T07:13:48.725Z,626.10
2019-04-28T07:16:17.786Z,699.47
2019-04-28T07:18:46.922Z,673.13
2019-04-28T07:21:17.673Z,661.67
2019-04-28T07:23:47.281Z,804.33
2019-04-28T07:26:16.298Z,638.47
2019-04-28T07:28:45.345Z,649.40
2019-04-28T07:31:14.362Z,680.97
2019-04-28T07:33:43.423Z,932.13
2019-04-28T07:36:12.476Z,775.80
2019-04-28T07:38:41.521Z,796.10
2019-04-28T07:41:10.522Z,799.73
2019-04-28T07:43:39.585Z,787.13
2019-04-28T07:46:09.657Z,807.90
2019-04-28T07:48:38.671Z,798.27
2019-04-28T07:51:07.701Z,796.37
2019-04-28T07:53:38.378Z,849.87
2019-04-28T07:56:07.819Z,782.23
2019-04-28T07:58:37.222Z,850.45
2019-04-28T08:01:08.145Z,833.53
2019-04-28T08:03:48.842Z,936.20
2019-04-28T08:06:07.836Z,792.60
2019-04-28T08:08:36.869Z,844.07
2019-04-28T08:11:05.891Z,918.80
2019-04-28T08:13:35.964Z,787.90
2019-04-28T08:16:05.269Z,731.43
2019-04-28T08:18:34.713Z,806.13
2019-04-28T08:21:03.853Z,774.03
2019-04-28T08:23:32.944Z,912.80
2019-04-28T08:26:02.035Z,789.13
2019-04-28T08:28:31.030Z,841.23
2019-04-28T08:31:00.084Z,791.20
2019-04-28T08:33:33.158Z,755.33
2019-04-28T08:36:01.917Z,771.03
2019-04-28T08:38:31.854Z,778.43
2019-04-28T08:41:00.884Z,800.60
2019-04-28T08:43:30.185Z,791.60
2019-04-28T08:45:59.586Z,787.63
2019-04-28T08:48:29.122Z,777.00
2019-04-28T08:50:58.311Z,745.10
2019-04-28T08:53:27.792Z,778.33
2019-04-28T08:55:57.176Z,926.23
2019-04-28T08:58:26.507Z,808.20
2019-04-28T09:00:55.561Z,866.70
2019-04-28T09:03:24.489Z,834.33
2019-04-28T09:05:53.568Z,709.30
2019-04-28T09:08:22.568Z,802.60
2019-04-28T09:10:51.605Z,808.03
2019-04-28T09:13:20.754Z,794.50
2019-04-28T09:15:49.809Z,780.37
2019-04-28T09:18:18.834Z,758.07
2019-04-28T09:20:48.914Z,783.45
2019-04-28T09:23:18.208Z,838.75
2019-04-28T09:25:47.618Z,775.22
2019-04-28T09:28:16.654Z,805.10
2019-04-28T09:30:45.966Z,738.03
2019-04-28T09:33:14.958Z,760.83
2019-04-28T09:35:43.976Z,780.55
2019-04-28T09:38:13.103Z,785.05
2019-04-28T09:40:43.127Z,741.23
2019-04-28T09:43:13.786Z,763.53
2019-04-28T09:45:44.471Z,771.77
2019-04-28T09:48:13.490Z,689.73
2019-04-28T09:50:42.509Z,779.00
2019-04-28T09:53:12.547Z,787.77
2019-04-28T09:55:41.596Z,762.90
2019-04-28T09:58:10.642Z,779.90
2019-04-28T10:00:40.725Z,733.70
2019-04-28T10:03:10.708Z,746.67
2019-04-28T10:05:40.047Z,722.80
2019-04-28T10:08:09.095Z,741.83
2019-04-28T10:10:38.406Z,725.63
2019-04-28T10:13:07.762Z,742.33
2019-04-28T10:15:36.820Z,712.03
2019-04-28T10:18:05.941Z,818.10
2019-04-28T10:20:35.722Z,785.20
2019-04-28T10:23:05.948Z,731.53
2019-04-28T10:25:34.969Z,731.97
2019-04-28T10:28:04.434Z,761.00
2019-04-28T10:30:33.804Z,754.47
2019-04-28T10:33:02.906Z,728.30
2019-04-28T10:35:31.942Z,726.70
2019-04-28T10:38:00.999Z,728.60
2019-04-28T10:40:31.630Z,723.33
2019-04-28T10:43:00.650Z,730.53
2019-04-28T10:45:32.348Z,759.30
2019-04-28T10:48:01.379Z,723.90
2019-04-28T10:50:30.436Z,754.57
2019-04-28T10:52:59.418Z,706.03
2019-04-28T10:55:28.434Z,798.00
2019-04-28T10:57:57.627Z,767.93
2019-04-28T11:00:28.462Z,752.60
2019-04-28T11:02:57.522Z,796.97
2019-04-28T11:05:28.232Z,720.77
2019-04-28T11:07:57.257Z,694.33
2019-04-28T11:10:26.354Z,884.93
2019-04-28T11:12:55.451Z,965.33
2019-04-28T11:15:26.110Z,680.90
2019-04-28T11:17:55.133Z,727.87
2019-04-28T11:20:25.301Z,714.50
2019-04-28T11:22:54.390Z,727.23
2019-04-28T11:25:23.763Z,597.60
2019-04-28T11:27:55.421Z,739.40
2019-04-28T11:30:24.199Z,680.43
2019-04-28T11:32:54.860Z,745.37
2019-04-28T11:35:25.602Z,703.70
2019-04-28T11:37:54.621Z,756.70
2019-04-28T11:40:23.661Z,758.77
2019-04-28T11:42:52.699Z,750.10
2019-04-28T11:45:22.118Z,708.50
2019-04-28T11:47:51.146Z,751.47
2019-04-28T11:50:20.177Z,747.80
2019-04-28T11:52:49.125Z,739.02
2019-04-28T11:55:18.190Z,763.00
2019-04-28T11:57:47.300Z,763.03
2019-04-28T12:00:19.021Z,758.77
2019-04-28T12:02:48.546Z,768.75
2019-04-28T12:05:18.047Z,798.80
2019-04-28T12:07:47.097Z,759.42
2019-04-28T12:10:17.862Z,768.75
2019-04-28T12:12:48.645Z,762.25
2019-04-28T12:15:19.425Z,762.02
2019-04-28T12:17:50.107Z,797.85
2019-04-28T12:20:20.752Z,757.02
2019-04-28T12:22:49.869Z,798.33
2019-04-28T12:25:18.817Z,793.80
2019-04-28T12:27:47.843Z,817.00
2019-04-28T12:30:17.046Z,841.20
2019-04-28T12:32:46.082Z,832.92
2019-04-28T12:35:15.162Z,780.13
2019-04-28T12:37:44.185Z,742.45
2019-04-28T12:40:13.848Z,725.25
2019-04-28T12:42:42.973Z,762.52
2019-04-28T12:45:12.399Z,767.22
2019-04-28T12:47:41.500Z,789.60
2019-04-28T12:50:12.522Z,767.58
2019-04-28T12:52:44.857Z,787.75
2019-04-28T12:55:13.901Z,765.40
2019-04-28T12:57:43.096Z,783.02
2019-04-28T13:00:14.130Z,759.98
2019-04-28T13:02:44.792Z,810.63
2019-04-28T13:05:15.606Z,866.77
2019-04-28T13:07:44.697Z,727.73
2019-04-28T13:10:13.703Z,687.17
2019-04-28T13:12:42.782Z,697.73
2019-04-28T13:15:14.546Z,943.97
2019-04-28T13:17:43.563Z,921.30
2019-04-28T13:20:12.661Z,772.67
2019-04-28T13:22:41.637Z,782.53
2019-04-28T13:25:10.825Z,675.00
2019-04-28T13:27:39.938Z,680.73
2019-04-28T13:30:09.030Z,716.40
2019-04-28T13:32:38.078Z,658.13
2019-04-28T13:35:07.147Z,801.20
2019-04-28T13:37:36.200Z,794.20
2019-04-28T13:40:07.222Z,713.60
2019-04-28T13:42:36.245Z,704.00
2019-04-28T13:45:08.230Z,772.77
2019-04-28T13:47:37.319Z,722.83
2019-04-28T13:50:09.204Z,774.33
2019-04-28T13:52:38.261Z,773.43
2019-04-28T13:55:12.518Z,794.85
2019-04-28T13:57:42.536Z,860.95
2019-04-28T14:00:14.713Z,813.08
2019-04-28T14:02:45.598Z,802.63
2019-04-28T14:05:16.254Z,776.03
2019-04-28T14:07:46.255Z,778.07
2019-04-28T14:10:15.369Z,769.50
2019-04-28T14:12:44.368Z,786.27
2019-04-28T14:15:13.462Z,763.63
2019-04-28T14:17:42.625Z,756.95
2019-04-28T14:20:12.040Z,793.37
2019-04-28T14:22:40.999Z,791.80
2019-04-28T14:25:10.055Z,841.17
2019-04-28T14:27:39.130Z,787.17
2019-04-28T14:30:08.255Z,772.83
2019-04-28T14:32:37.276Z,777.50
2019-04-28T14:35:06.382Z,761.55
2019-04-28T14:37:35.386Z,825.98
2019-04-28T14:40:05.531Z,804.90
2019-04-28T14:42:34.680Z,797.48
2019-04-28T14:45:05.289Z,763.03
2019-04-28T14:47:34.325Z,813.33
2019-04-28T14:50:04.808Z,805.08
2019-04-28T14:52:34.211Z,797.58
2019-04-28T14:55:04.715Z,833.25
2019-04-28T14:57:33.785Z,818.48
2019-04-28T15:00:03.743Z,849.53
2019-04-28T15:02:35.091Z,817.77
2019-04-28T15:05:07.917Z,809.55
2019-04-28T15:07:39.054Z,840.47
2019-04-28T15:10:10.525Z,795.70
2019-04-28T15:12:40.125Z,788.20
2019-04-28T15:15:09.968Z,803.52
2019-04-28T15:17:39.780Z,818.95
2019-04-28T15:20:10.618Z,805.90
2019-04-28T15:22:40.138Z,788.98
2019-04-28T15:25:09.823Z,786.35
2019-04-28T15:27:39.398Z,791.65
2019-04-28T15:30:09.223Z,796.37
2019-04-28T15:32:38.433Z,794.73
2019-04-28T15:35:08.345Z,790.08
2019-04-28T15:37:37.428Z,757.20
2019-04-28T15:40:07.096Z,771.77
2019-04-28T15:42:36.193Z,757.85
2019-04-28T15:45:06.124Z,758.77
2019-04-28T15:47:35.196Z,750.62
2019-04-28T15:50:05.809Z,749.08
2019-04-28T15:52:34.902Z,788.12
2019-04-28T15:55:06.792Z,786.20
2019-04-28T15:57:35.805Z,760.35
2019-04-28T16:00:07.343Z,771.55
2019-04-28T16:02:36.429Z,744.58
2019-04-28T16:05:07.050Z,704.95
2019-04-28T16:07:37.055Z,724.98
2019-04-28T16:10:06.453Z,708.87
2019-04-28T16:12:35.493Z,734.07
2019-04-28T16:15:07.296Z,727.93
2019-04-28T16:17:35.316Z,709.73
2019-04-28T16:20:06.097Z,703.73
2019-04-28T16:22:35.220Z,715.63
2019-04-28T16:25:05.905Z,754.00
2019-04-28T16:27:35.941Z,785.27
2019-04-28T16:30:05.874Z,772.40
2019-04-28T16:32:34.984Z,808.00
2019-04-28T16:35:04.257Z,737.80
2019-04-28T16:37:38.964Z,721.43
2019-04-28T16:40:07.688Z,720.97
2019-04-28T16:42:35.238Z,755.77
2019-04-28T16:45:05.120Z,739.03
2019-04-28T16:47:34.184Z,763.17
2019-04-28T16:50:04.069Z,749.90
2019-04-28T16:52:33.094Z,726.43
2019-04-28T16:55:03.757Z,699.20
2019-04-28T16:57:57.631Z,741.80
2019-04-28T17:00:28.290Z,668.80
2019-04-28T17:02:57.708Z,693.63
2019-04-28T17:05:26.728Z,684.70
2019-04-28T17:07:55.785Z,718.13
2019-04-28T17:10:24.829Z,670.20
2019-04-28T17:12:53.934Z,664.97
2019-04-28T17:15:23.066Z,639.37
2019-04-28T17:17:52.156Z,641.43
2019-04-28T17:20:21.202Z,655.13
2019-04-28T17:22:50.313Z,639.67
2019-04-28T17:25:19.452Z,659.20
2019-04-28T17:27:48.433Z,664.43
2019-04-28T17:30:18.839Z,649.33
2019-04-28T17:32:47.913Z,657.27
2019-04-28T17:35:16.936Z,643.27
2019-04-28T17:37:47.186Z,680.57
2019-04-28T17:40:17.373Z,733.70
2019-04-28T17:42:46.457Z,713.87
2019-04-28T17:45:16.282Z,706.00
2019-04-28T17:47:45.754Z,679.23
2019-04-28T17:50:15.999Z,631.30
2019-04-28T17:52:45.042Z,737.37
2019-04-28T17:55:14.300Z,736.07
2019-04-28T17:57:43.319Z,720.83
2019-04-28T18:00:15.054Z,724.63
2019-04-28T18:02:45.828Z,745.87
2019-04-28T18:05:16.820Z,773.30
2019-04-28T18:07:46.910Z,734.40
2019-04-28T18:10:16.638Z,725.27
2019-04-28T18:12:45.698Z,758.17
2019-04-28T18:15:16.470Z,717.87
2019-04-28T18:17:47.133Z,747.00
2019-04-28T18:20:16.347Z,704.33
2019-04-28T18:22:45.494Z,728.37
2019-04-28T18:25:15.126Z,679.63
2019-04-28T18:27:44.444Z,673.53
2019-04-28T18:30:15.285Z,665.23
2019-04-28T18:32:46.118Z,659.57
2019-04-28T18:35:16.848Z,644.17
2019-04-28T18:37:47.763Z,574.90
2019-04-28T18:40:18.966Z,552.23
2019-04-28T18:42:50.114Z,537.10
2019-04-28T18:45:19.527Z,567.93
2019-04-28T18:47:48.959Z,535.67
2019-04-28T18:50:18.070Z,590.53
2019-04-28T18:52:47.290Z,568.97
2019-04-28T18:55:16.409Z,575.73
2019-04-28T18:57:45.779Z,613.93
2019-04-28T19:00:15.053Z,650.57
2019-04-28T19:02:45.628Z,743.10
2019-04-28T19:05:14.869Z,721.73
2019-04-28T19:07:45.620Z,777.73
2019-04-28T19:10:16.277Z,780.47
2019-04-28T19:12:47.013Z,793.77
2019-04-28T19:15:19.039Z,847.40
2019-04-28T19:17:49.893Z,903.63
2019-04-28T19:20:18.951Z,867.00
2019-04-28T19:22:48.252Z,859.57
2019-04-28T19:25:17.341Z,823.70
2019-04-28T19:27:46.489Z,875.53
2019-04-28T19:30:15.649Z,877.70
2019-04-28T19:32:44.730Z,903.13
2019-04-28T19:35:13.817Z,868.10
2019-04-28T19:37:42.891Z,871.00
2019-04-28T19:40:12.106Z,953.93
2019-04-28T19:42:41.218Z,961.17
2019-04-28T19:45:12.178Z,943.73
2019-04-28T19:47:41.283Z,975.70
2019-04-28T19:50:11.793Z,968.27
2019-04-28T19:52:42.808Z,999.90
2019-04-28T19:55:14.436Z,999.90
2019-04-28T19:57:45.220Z,999.90
2019-04-28T20:00:16.158Z,999.90
2019-04-28T20:02:46.819Z,999.90
2019-04-28T20:05:15.831Z,999.90
2019-04-28T20:07:44.963Z,999.90
2019-04-28T20:10:14.186Z,999.90
2019-04-28T20:12:43.353Z,999.90
2019-04-28T20:15:12.525Z,999.90
2019-04-28T20:17:41.647Z,999.90
2019-04-28T20:20:10.834Z,999.90
2019-04-28T20:22:39.897Z,999.90
2019-04-28T20:25:10.080Z,999.90
2019-04-28T20:27:39.805Z,999.90
2019-04-28T20:30:09.808Z,999.90
2019-04-28T20:32:43.517Z,999.90
2019-04-28T20:35:38.579Z,999.90
2019-04-28T20:38:09.854Z,999.90
2019-04-28T20:40:41.121Z,999.90
2019-04-28T20:43:12.264Z,999.90
2019-04-28T20:45:41.797Z,999.90
2019-04-28T20:48:14.464Z,979.93
2019-04-28T20:50:44.120Z,975.90
2019-04-28T20:53:13.726Z,999.90
2019-04-28T20:55:43.656Z,999.90
2019-04-28T20:58:13.285Z,999.90
2019-04-28T21:00:43.388Z,999.90
2019-04-28T21:03:14.063Z,999.90
2019-04-28T21:05:43.515Z,999.90
2019-04-28T21:08:12.982Z,999.90
2019-04-28T21:10:42.421Z,999.90
2019-04-28T21:13:11.854Z,999.90
2019-04-28T21:15:41.378Z,999.90
2019-04-28T21:18:11.087Z,999.90
2019-04-28T21:20:41.118Z,999.43
2019-04-28T21:23:11.006Z,937.90
2019-04-28T21:25:40.650Z,938.40
2019-04-28T21:28:10.160Z,929.87
2019-04-28T21:30:39.588Z,925.67
2019-04-28T21:33:08.628Z,981.07
2019-04-28T21:35:37.664Z,845.60
2019-04-28T21:38:06.670Z,911.77
2019-04-28T21:40:36.096Z,926.70
2019-04-28T21:43:06.749Z,925.73
2019-04-28T21:45:37.422Z,866.07
2019-04-28T21:48:06.566Z,776.87
2019-04-28T21:50:35.600Z,830.80
2019-04-28T21:53:04.615Z,831.67
2019-04-28T21:55:33.652Z,831.90
2019-04-28T21:58:02.610Z,868.63
2019-04-28T22:00:34.830Z,818.67
2019-04-28T22:03:05.456Z,759.87
2019-04-28T22:05:35.579Z,854.00
2019-04-28T22:08:04.601Z,769.37
2019-04-28T22:10:33.743Z,756.73
2019-04-28T22:13:02.782Z,799.43
2019-04-28T22:15:31.839Z,742.07
2019-04-28T22:18:00.862Z,656.87
2019-04-28T22:20:29.876Z,626.07
2019-04-28T22:23:00.551Z,618.90
2019-04-28T22:25:29.586Z,621.07
2019-04-28T22:27:58.628Z,679.67
2019-04-28T22:30:27.654Z,673.53
2019-04-28T22:32:56.707Z,624.70
2019-04-28T22:35:25.704Z,623.90
2019-04-28T22:37:54.752Z,597.63
2019-04-28T22:40:23.775Z,631.07
2019-04-28T22:42:52.811Z,640.20
2019-04-28T22:45:21.825Z,653.57
2019-04-28T22:47:50.945Z,605.20
2019-04-28T22:50:21.485Z,504.30
2019-04-28T22:52:50.542Z,518.17
2019-04-28T22:55:21.194Z,593.60
2019-04-28T22:57:51.884Z,472.37
2019-04-28T23:00:23.465Z,523.87
2019-04-28T23:02:54.146Z,464.60
2019-04-28T23:05:23.172Z,496.10
2019-04-28T23:07:52.216Z,491.43
2019-04-28T23:10:21.222Z,493.63
2019-04-28T23:12:50.294Z,433.63
2019-04-28T23:15:19.369Z,422.73
2019-04-28T23:17:48.504Z,362.47
2019-04-28T23:20:17.525Z,336.37
2019-04-28T23:22:48.178Z,387.70
2019-04-28T23:25:17.188Z,315.10
2019-04-28T23:27:46.151Z,336.20
2019-04-28T23:30:16.717Z,370.40
2019-04-28T23:32:45.741Z,294.97
2019-04-28T23:35:14.755Z,323.40
2019-04-28T23:37:43.859Z,272.03
2019-04-28T23:40:13.724Z,324.73
2019-04-28T23:42:44.321Z,291.00
2019-04-28T23:45:13.423Z,205.87
2019-04-28T23:47:42.455Z,288.53
2019-04-28T23:50:13.211Z,269.50
2019-04-28T23:52:43.893Z,237.27
2019-04-28T23:55:13.209Z,221.87
2019-04-28T23:57:42.320Z,265.67
